createdAt,value
2019-01-22T00:00:35.412Z,-5.30
2019-01-22T00:03:03.995Z,-5.20
2019-01-22T00:05:32.532Z,-5.30
2019-01-22T00:08:01.063Z,-5.30
2019-01-22T00:10:29.592Z,-5.40
2019-01-22T00:12:58.110Z,-5.40
2019-01-22T00:15:28.294Z,-5.50
2019-01-22T00:17:56.741Z,-5.50
2019-01-22T00:20:25.258Z,-5.60
2019-01-22T00:22:53.749Z,-5.70
2019-01-22T00:25:22.270Z,-5.70
2019-01-22T00:27:50.823Z,-5.70
2019-01-22T00:30:21.411Z,-5.60
2019-01-22T00:32:49.937Z,-5.60
2019-01-22T00:35:18.546Z,-5.80
2019-01-22T00:37:47.082Z,-5.70
2019-01-22T00:40:17.715Z,-5.70
2019-01-22T00:42:46.787Z,-5.60
2019-01-22T00:45:15.574Z,-5.60
2019-01-22T00:47:44.091Z,-5.60
2019-01-22T00:50:17.766Z,-5.60
2019-01-22T00:52:46.382Z,-5.70
2019-01-22T00:55:17.744Z,-5.80
2019-01-22T00:57:46.333Z,-5.80
2019-01-22T01:00:18.103Z,-5.90
2019-01-22T01:02:46.618Z,-5.90
2019-01-22T01:05:15.302Z,-5.80
2019-01-22T01:07:44.220Z,-5.90
2019-01-22T01:10:14.270Z,-5.90
2019-01-22T01:12:42.862Z,-6.00
2019-01-22T01:15:31.595Z,-6.00
2019-01-22T01:18:19.839Z,-6.00
2019-01-22T01:20:48.383Z,-6.00
2019-01-22T01:23:17.203Z,-6.00
2019-01-22T01:25:45.829Z,-6.10
2019-01-22T01:28:14.383Z,-6.10
2019-01-22T01:30:42.905Z,-6.00
2019-01-22T01:33:11.493Z,-5.90
2019-01-22T01:35:40.040Z,-5.90
2019-01-22T01:38:27.952Z,-5.80
2019-01-22T01:40:56.494Z,-5.70
2019-01-22T01:43:25.116Z,-5.70
2019-01-22T01:45:53.632Z,-5.60
2019-01-22T01:48:22.175Z,-5.60
2019-01-22T01:50:50.690Z,-5.50
2019-01-22T01:53:23.807Z,-5.60
2019-01-22T01:55:50.763Z,-5.60
2019-01-22T01:58:19.760Z,-5.60
2019-01-22T02:00:49.029Z,-5.50
2019-01-22T02:03:17.494Z,-5.50
2019-01-22T02:05:46.304Z,-5.60
2019-01-22T02:08:15.123Z,-5.70
2019-01-22T02:10:43.746Z,-5.60
2019-01-22T02:13:12.268Z,-5.70
2019-01-22T02:15:46.803Z,-5.70
2019-01-22T02:18:48.671Z,-5.60
2019-01-22T02:21:53.575Z,-5.60
2019-01-22T02:24:30.972Z,-5.50
2019-01-22T02:27:02.566Z,-5.30
2019-01-22T02:29:39.996Z,-5.30
2019-01-22T02:32:48.782Z,-5.20
2019-01-22T02:35:29.419Z,-5.10
2019-01-22T02:38:19.104Z,-5.10
2019-01-22T02:40:50.713Z,-5.10
2019-01-22T02:43:22.306Z,-5.00
2019-01-22T02:45:59.966Z,-5.00
2019-01-22T02:48:31.576Z,-5.00
2019-01-22T02:51:21.352Z,-5.00
2019-01-22T02:53:55.961Z,-4.90
2019-01-22T02:56:36.399Z,-5.00
2019-01-22T02:59:14.023Z,-5.00
2019-01-22T03:04:48.239Z,-4.90
2019-01-22T03:07:38.037Z,-5.00
2019-01-22T03:10:18.394Z,-4.90
2019-01-22T03:16:01.022Z,-4.90
2019-01-22T03:18:32.639Z,-4.90
2019-01-22T03:21:04.436Z,-4.80
2019-01-22T03:23:35.986Z,-4.80
2019-01-22T03:26:24.158Z,-4.80
2019-01-22T03:29:04.916Z,-4.70
2019-01-22T03:32:09.344Z,-4.70
2019-01-22T03:34:56.543Z,-4.70
2019-01-22T03:37:46.402Z,-4.60
2019-01-22T03:40:42.310Z,-4.60
2019-01-22T03:43:33.507Z,-4.60
2019-01-22T03:46:07.650Z,-4.60
2019-01-22T03:48:45.178Z,-4.60
2019-01-22T03:51:38.563Z,-4.60
2019-01-22T03:54:15.680Z,-4.60
2019-01-22T03:56:58.944Z,-4.60
2019-01-22T03:59:27.479Z,-4.60
2019-01-22T04:01:56.020Z,-4.70
2019-01-22T04:04:24.518Z,-4.60
2019-01-22T04:06:55.001Z,-4.70
2019-01-22T04:09:43.247Z,-4.70
2019-01-22T04:12:11.705Z,-4.70
2019-01-22T04:14:40.223Z,-4.70
2019-01-22T04:17:08.749Z,-4.70
2019-01-22T04:19:37.215Z,-4.70
2019-01-22T04:22:08.470Z,-4.70
2019-01-22T04:24:48.852Z,-4.70
2019-01-22T04:27:24.845Z,-4.70
2019-01-22T04:30:17.232Z,-4.70
2019-01-22T04:32:51.423Z,-4.70
2019-01-22T04:35:45.899Z,-4.80
2019-01-22T04:38:20.359Z,-4.80
2019-01-22T04:41:28.972Z,-4.70
2019-01-22T04:44:06.619Z,-4.70
2019-01-22T04:46:50.290Z,-4.70
2019-01-22T04:49:30.632Z,-4.60
2019-01-22T04:52:10.744Z,-4.60
2019-01-22T04:54:51.067Z,-4.60
2019-01-22T04:57:25.662Z,-4.50
2019-01-22T05:00:12.104Z,-4.40
2019-01-22T05:02:58.676Z,-4.40
2019-01-22T05:05:49.969Z,-4.40
2019-01-22T05:08:44.180Z,-4.40
2019-01-22T05:11:33.562Z,-4.30
2019-01-22T05:14:32.075Z,-4.30
2019-01-22T05:17:24.216Z,-4.30
2019-01-22T05:19:55.847Z,-4.20
2019-01-22T05:22:48.431Z,-4.20
2019-01-22T05:25:46.705Z,-4.20
2019-01-22T05:28:30.474Z,-4.20
2019-01-22T05:31:13.971Z,-4.20
2019-01-22T05:34:02.307Z,-4.20
2019-01-22T05:36:36.907Z,-4.30
2019-01-22T05:39:11.308Z,-4.20
2019-01-22T05:42:03.626Z,-3.90
2019-01-22T05:44:47.064Z,-3.80
2019-01-22T05:47:36.710Z,-4.00
2019-01-22T05:50:23.570Z,-4.00
2019-01-22T05:53:18.304Z,-4.00
2019-01-22T05:56:01.159Z,-4.10
2019-01-22T05:59:08.560Z,-4.20
2019-01-22T06:01:42.731Z,-4.20
2019-01-22T06:04:38.153Z,-4.20
2019-01-22T06:07:27.455Z,-4.30
2019-01-22T06:10:19.862Z,-4.30
2019-01-22T06:12:51.395Z,-4.30
2019-01-22T06:15:31.883Z,-4.30
2019-01-22T06:18:24.722Z,-4.20
2019-01-22T06:21:14.373Z,-4.20
2019-01-22T06:24:03.684Z,-4.10
2019-01-22T06:26:53.015Z,-4.10
2019-01-22T06:29:44.143Z,-4.10
2019-01-22T06:32:27.798Z,-4.00
2019-01-22T06:35:16.043Z,-4.10
2019-01-22T06:37:56.498Z,-4.10
2019-01-22T06:40:36.287Z,-4.00
2019-01-22T06:43:31.642Z,-4.10
2019-01-22T06:46:23.795Z,-4.10
2019-01-22T06:49:10.642Z,-4.10
2019-01-22T06:51:45.060Z,-4.30
2019-01-22T06:54:19.583Z,-4.30
2019-01-22T06:57:23.187Z,-4.30
2019-01-22T07:00:15.673Z,-4.30
2019-01-22T07:03:01.542Z,-4.20
2019-01-22T07:05:47.931Z,-4.20
2019-01-22T07:08:53.014Z,-4.20
2019-01-22T07:11:27.479Z,-4.20
2019-01-22T07:14:19.584Z,-4.30
2019-01-22T07:17:11.036Z,-4.20
2019-01-22T07:19:48.450Z,-4.20
2019-01-22T07:22:22.622Z,-4.20
2019-01-22T07:25:13.253Z,-4.10
2019-01-22T07:27:59.711Z,-4.10
2019-01-22T07:30:43.316Z,-4.10
2019-01-22T07:33:15.108Z,-4.10
2019-01-22T07:35:49.725Z,-4.10
2019-01-22T07:38:24.106Z,-4.20
2019-01-22T07:41:02.054Z,-4.20
2019-01-22T07:43:33.702Z,-4.10
2019-01-22T07:46:40.563Z,-4.10
2019-01-22T07:49:21.168Z,-4.10
2019-01-22T07:51:55.607Z,-3.90
2019-01-22T07:57:27.973Z,-3.80
2019-01-22T07:59:59.528Z,-3.80
2019-01-22T08:02:34.273Z,-3.70
2019-01-22T08:05:31.257Z,-3.60
2019-01-22T08:08:31.653Z,-3.50
2019-01-22T08:11:14.994Z,-3.50
2019-01-22T08:14:10.303Z,-3.30
2019-01-22T08:16:50.692Z,-3.10
2019-01-22T08:19:22.279Z,-3.20
2019-01-22T08:22:27.151Z,-3.00
2019-01-22T08:25:38.842Z,-3.00
2019-01-22T08:28:40.363Z,-3.00
2019-01-22T08:31:35.930Z,-2.70
2019-01-22T08:34:25.662Z,-2.70
2019-01-22T08:37:31.575Z,-2.60
2019-01-22T08:40:18.406Z,-2.50
2019-01-22T08:43:05.318Z,-2.20
2019-01-22T08:45:48.307Z,-2.20
2019-01-22T08:48:54.198Z,-2.10
2019-01-22T08:51:37.309Z,-1.90
2019-01-22T08:54:14.328Z,-1.70
2019-01-22T08:57:21.463Z,-1.50
2019-01-22T09:00:02.148Z,-1.40
2019-01-22T09:03:00.536Z,-1.40
2019-01-22T09:05:48.798Z,-1.40
2019-01-22T09:08:20.343Z,-1.20
2019-01-22T09:10:54.699Z,-1.30
2019-01-22T09:13:35.326Z,-0.80
2019-01-22T09:16:30.621Z,-0.60
2019-01-22T09:19:07.753Z,-0.50
2019-01-22T09:21:56.995Z,-0.70
2019-01-22T09:24:46.138Z,-0.70
2019-01-22T09:27:36.014Z,-0.70
2019-01-22T09:30:27.205Z,-0.50
2019-01-22T09:33:10.043Z,-0.80
2019-01-22T09:35:44.268Z,-0.80
2019-01-22T09:38:13.857Z,-0.80
2019-01-22T09:40:44.405Z,-0.80
2019-01-22T09:43:13.223Z,-1.00
2019-01-22T09:45:42.319Z,-1.10
2019-01-22T09:48:10.907Z,-1.20
2019-01-22T09:50:39.615Z,-1.20
2019-01-22T09:53:08.146Z,-1.00
2019-01-22T09:55:36.602Z,-0.90
2019-01-22T09:58:05.244Z,-0.80
2019-01-22T10:00:33.759Z,-0.60
2019-01-22T10:03:02.216Z,-0.10
2019-01-22T10:05:30.760Z,0.10
2019-01-22T10:08:18.613Z,0.30
2019-01-22T10:10:47.147Z,-0.20
2019-01-22T10:13:15.934Z,0.00
2019-01-22T10:15:44.379Z,0.10
2019-01-22T10:18:13.179Z,0.10
2019-01-22T10:20:41.794Z,0.20
2019-01-22T10:23:10.303Z,0.30
2019-01-22T10:25:38.767Z,0.20
2019-01-22T10:28:07.352Z,-0.20
2019-01-22T10:30:35.926Z,0.30
2019-01-22T10:33:04.527Z,0.10
2019-01-22T10:35:32.977Z,-0.70
2019-01-22T10:38:01.449Z,0.50
2019-01-22T10:40:29.906Z,-0.10
2019-01-22T10:42:58.358Z,-0.10
2019-01-22T10:45:26.882Z,0.00
2019-01-22T10:47:55.332Z,0.10
2019-01-22T10:50:24.113Z,0.50
2019-01-22T10:52:52.623Z,0.40
2019-01-22T10:55:21.136Z,1.20
2019-01-22T10:57:49.611Z,0.60
2019-01-22T11:00:21.358Z,0.20
2019-01-22T11:02:49.862Z,0.70
2019-01-22T11:05:27.375Z,0.40
2019-01-22T11:07:55.904Z,0.40
2019-01-22T11:10:24.468Z,0.10
2019-01-22T11:12:53.040Z,0.20
2019-01-22T11:15:27.669Z,0.10
2019-01-22T11:17:51.805Z,-0.30
2019-01-22T11:20:39.594Z,0.00
2019-01-22T11:23:08.193Z,-0.20
2019-01-22T11:25:43.287Z,-0.30
2019-01-22T11:28:07.399Z,-0.10
2019-01-22T11:30:36.006Z,0.30
2019-01-22T11:33:25.346Z,0.80
2019-01-22T11:35:53.808Z,0.80
2019-01-22T11:38:22.250Z,0.90
2019-01-22T11:40:50.753Z,1.00
2019-01-22T11:43:19.258Z,1.30
2019-01-22T11:45:47.691Z,1.70
2019-01-22T11:48:16.202Z,1.40
2019-01-22T11:50:44.929Z,1.60
2019-01-22T11:53:13.366Z,2.20
2019-01-22T11:56:01.235Z,1.80
2019-01-22T11:58:29.682Z,1.80
2019-01-22T12:00:58.747Z,1.80
2019-01-22T12:03:27.209Z,2.00
2019-01-22T12:05:55.662Z,2.40
2019-01-22T12:08:24.202Z,2.50
2019-01-22T12:10:52.714Z,2.90
2019-01-22T12:13:21.227Z,2.30
2019-01-22T12:15:49.688Z,2.60
2019-01-22T12:25:42.747Z,2.70
2019-01-22T12:28:11.290Z,2.40
2019-01-22T12:30:59.079Z,2.60
2019-01-22T12:33:27.619Z,2.50
2019-01-22T12:35:56.061Z,2.10
2019-01-22T12:38:24.498Z,2.40
2019-01-22T12:40:53.032Z,2.40
2019-01-22T12:43:21.476Z,2.10
2019-01-22T12:48:18.184Z,2.80
2019-01-22T12:50:46.702Z,2.90
2019-01-22T12:53:15.251Z,3.60
2019-01-22T12:55:43.758Z,3.10
2019-01-22T12:58:12.271Z,2.70
2019-01-22T13:00:40.912Z,2.90
2019-01-22T13:03:30.301Z,3.60
2019-01-22T13:06:18.170Z,3.80
2019-01-22T13:08:50.703Z,3.60
2019-01-22T13:11:19.281Z,3.30
2019-01-22T13:13:47.849Z,3.50
2019-01-22T13:16:16.326Z,3.40
2019-01-22T13:18:44.787Z,3.20
2019-01-22T13:21:32.575Z,3.40
2019-01-22T13:24:21.611Z,3.10
2019-01-22T13:26:50.199Z,2.40
2019-01-22T13:29:18.638Z,2.80
2019-01-22T13:31:47.145Z,3.00
2019-01-22T13:34:16.126Z,2.80
2019-01-22T13:36:44.642Z,2.80
2019-01-22T13:39:13.201Z,2.50
2019-01-22T13:41:41.705Z,2.60
2019-01-22T13:44:10.305Z,2.40
2019-01-22T13:46:38.818Z,2.50
2019-01-22T13:49:07.342Z,2.60
2019-01-22T13:51:35.807Z,2.90
2019-01-22T13:54:23.600Z,2.80
2019-01-22T13:56:52.063Z,2.70
2019-01-22T13:59:20.507Z,2.50
2019-01-22T14:01:48.981Z,2.70
2019-01-22T14:04:17.424Z,2.50
2019-01-22T14:06:45.888Z,2.80
2019-01-22T14:09:14.346Z,3.30
2019-01-22T14:11:42.813Z,3.30
2019-01-22T14:14:11.256Z,2.30
2019-01-22T14:16:39.770Z,2.50
2019-01-22T14:19:08.255Z,2.60
2019-01-22T14:21:36.767Z,2.40
2019-01-22T14:24:05.214Z,2.30
2019-01-22T14:26:33.815Z,2.00
2019-01-22T14:29:02.410Z,1.60
2019-01-22T14:31:50.352Z,1.60
2019-01-22T14:34:38.130Z,1.30
2019-01-22T14:37:06.668Z,1.10
2019-01-22T14:39:35.116Z,0.90
2019-01-22T14:42:03.832Z,0.70
2019-01-22T14:44:32.296Z,0.60
2019-01-22T14:47:00.761Z,0.70
2019-01-22T14:49:29.231Z,0.60
2019-01-22T14:51:57.667Z,0.50
2019-01-22T14:54:45.485Z,0.60
2019-01-22T14:57:13.931Z,0.70
2019-01-22T14:59:42.375Z,0.60
2019-01-22T15:02:10.854Z,0.50
2019-01-22T15:04:39.363Z,0.40
2019-01-22T15:07:07.811Z,0.30
2019-01-22T15:09:55.617Z,0.20
2019-01-22T15:12:24.083Z,0.20
2019-01-22T15:14:52.636Z,0.00
2019-01-22T15:17:40.582Z,0.00
2019-01-22T15:20:12.339Z,-0.10
2019-01-22T15:22:42.019Z,-0.10
2019-01-22T15:25:31.433Z,-0.10
2019-01-22T15:28:00.023Z,-0.10
2019-01-22T15:30:52.034Z,-0.10
2019-01-22T15:33:20.499Z,-0.10
2019-01-22T15:36:08.451Z,-0.20
2019-01-22T15:38:38.203Z,-0.20
2019-01-22T15:41:06.623Z,-0.30
2019-01-22T15:43:35.083Z,-0.30
2019-01-22T15:49:29.766Z,-0.40
2019-01-22T15:51:58.211Z,-0.40
2019-01-22T15:54:26.682Z,-0.40
2019-01-22T15:56:55.132Z,-0.30
2019-01-22T15:59:23.594Z,-0.40
2019-01-22T16:01:52.186Z,-0.40
2019-01-22T16:04:20.671Z,-0.40
2019-01-22T16:06:49.192Z,-0.40
2019-01-22T16:09:17.659Z,-0.40
2019-01-22T16:12:05.461Z,-0.40
2019-01-22T16:14:33.999Z,-0.40
2019-01-22T16:17:02.763Z,-0.30
2019-01-22T16:19:31.770Z,-0.40
2019-01-22T16:22:01.824Z,-0.40
2019-01-22T16:24:30.291Z,-0.40
2019-01-22T16:26:58.773Z,-0.40
2019-01-22T16:29:27.576Z,-0.40
2019-01-22T16:31:56.092Z,-0.40
2019-01-22T16:34:26.101Z,-0.40
2019-01-22T16:36:54.566Z,-0.50
2019-01-22T16:39:23.022Z,-0.50
2019-01-22T16:42:10.822Z,-0.50
2019-01-22T16:44:39.301Z,-0.50
2019-01-22T16:47:07.778Z,-0.50
2019-01-22T16:49:36.237Z,-0.50
2019-01-22T16:52:06.931Z,-0.60
2019-01-22T16:54:54.962Z,-0.60
2019-01-22T16:57:23.543Z,-0.60
2019-01-22T17:00:04.241Z,-0.60
2019-01-22T17:02:45.224Z,-0.60
2019-01-22T17:05:14.439Z,-0.60
2019-01-22T17:07:42.891Z,-0.50
2019-01-22T17:10:14.775Z,-0.60
2019-01-22T17:12:43.398Z,-0.60
2019-01-22T17:18:08.179Z,-0.60
2019-01-22T17:20:39.287Z,-0.60
2019-01-22T17:23:16.311Z,-0.60
2019-01-22T17:26:00.074Z,-0.60
2019-01-22T17:28:28.570Z,-0.50
2019-01-22T17:30:57.023Z,-0.50
2019-01-22T17:33:44.877Z,-0.60
2019-01-22T17:36:13.415Z,-0.60
2019-01-22T17:38:41.879Z,-0.60
2019-01-22T17:41:12.418Z,-0.60
2019-01-22T17:43:40.962Z,-0.60
2019-01-22T17:46:09.427Z,-0.70
2019-01-22T17:48:42.634Z,-0.70
2019-01-22T17:51:11.517Z,-0.70
2019-01-22T17:53:40.039Z,-0.70
2019-01-22T17:56:08.519Z,-0.80
2019-01-22T17:58:36.966Z,-0.80
2019-01-22T18:01:05.496Z,-0.80
2019-01-22T18:03:34.268Z,-0.70
2019-01-22T18:06:02.730Z,-0.70
2019-01-22T18:08:31.974Z,-0.90
2019-01-22T18:11:00.540Z,-1.00
2019-01-22T18:13:28.979Z,-1.00
2019-01-22T18:15:57.783Z,-1.10
2019-01-22T18:18:26.412Z,-1.00
2019-01-22T18:20:54.934Z,-1.10
2019-01-22T18:23:23.518Z,-1.20
2019-01-22T18:25:51.983Z,-1.20
2019-01-22T18:28:20.419Z,-1.30
2019-01-22T18:30:48.859Z,-1.30
2019-01-22T18:33:17.351Z,-1.40
2019-01-22T18:35:46.464Z,-1.40
2019-01-22T18:38:15.027Z,-1.40
2019-01-22T18:40:43.518Z,-1.40
2019-01-22T18:43:11.968Z,-1.50
2019-01-22T18:45:40.403Z,-1.50
2019-01-22T18:48:08.942Z,-1.50
2019-01-22T18:50:37.461Z,-1.40
2019-01-22T18:53:06.228Z,-1.40
2019-01-22T18:55:34.771Z,-1.40
2019-01-22T18:58:03.509Z,-1.40
2019-01-22T19:00:32.377Z,-1.40
2019-01-22T19:03:01.448Z,-1.40
2019-01-22T19:05:30.323Z,-1.40
2019-01-22T19:07:59.990Z,-1.50
2019-01-22T19:10:32.180Z,-1.40
2019-01-22T19:13:00.937Z,-1.40
2019-01-22T19:15:29.666Z,-1.40
2019-01-22T19:17:58.603Z,-1.40
2019-01-22T19:20:27.311Z,-1.50
2019-01-22T19:22:55.752Z,-1.40
2019-01-22T19:25:28.932Z,-1.50
2019-01-22T19:27:57.487Z,-1.50
2019-01-22T19:30:30.722Z,-1.60
2019-01-22T19:32:59.326Z,-1.70
2019-01-22T19:35:27.806Z,-1.70
2019-01-22T19:37:56.328Z,-1.60
2019-01-22T19:40:25.159Z,-1.60
2019-01-22T19:42:53.672Z,-1.50
2019-01-22T19:45:25.290Z,-1.60
2019-01-22T19:47:54.139Z,-1.50
2019-01-22T19:50:22.812Z,-1.60
2019-01-22T19:52:51.461Z,-1.50
2019-01-22T19:55:20.133Z,-1.60
2019-01-22T19:57:48.746Z,-1.60
2019-01-22T20:00:23.038Z,-1.60
2019-01-22T20:02:51.503Z,-1.60
2019-01-22T20:05:20.206Z,-1.50
2019-01-22T20:07:49.760Z,-1.60
2019-01-22T20:10:18.583Z,-1.70
2019-01-22T20:12:47.101Z,-1.60
2019-01-22T20:15:20.126Z,-1.60
2019-01-22T20:17:48.732Z,-1.50
2019-01-22T20:20:18.520Z,-1.50
2019-01-22T20:23:06.993Z,-1.50
2019-01-22T20:25:35.735Z,-1.60
2019-01-22T20:28:23.810Z,-1.60
2019-01-22T20:30:52.271Z,-1.50
2019-01-22T20:33:20.718Z,-1.70
2019-01-22T20:35:49.330Z,-1.60
2019-01-22T20:38:17.783Z,-1.60
2019-01-22T20:41:05.746Z,-1.60
2019-01-22T20:43:34.363Z,-1.60
2019-01-22T20:46:02.799Z,-1.50
2019-01-22T20:48:31.271Z,-1.60
2019-01-22T20:50:59.718Z,-1.60
2019-01-22T20:53:28.233Z,-1.70
2019-01-22T20:55:57.048Z,-1.70
2019-01-22T20:58:25.467Z,-1.60
2019-01-22T21:01:06.198Z,-1.60
2019-01-22T21:03:35.279Z,-1.70
2019-01-22T21:06:04.218Z,-1.70
2019-01-22T21:08:32.702Z,-1.70
2019-01-22T21:11:01.228Z,-1.70
2019-01-22T21:13:49.103Z,-1.70
2019-01-22T21:16:17.626Z,-1.70
2019-01-22T21:18:46.142Z,-1.70
2019-01-22T21:21:14.667Z,-1.70
2019-01-22T21:23:43.115Z,-1.70
2019-01-22T21:26:11.631Z,-1.70
2019-01-22T21:28:40.071Z,-1.60
2019-01-22T21:31:08.510Z,-1.60
2019-01-22T21:33:36.979Z,-1.60
2019-01-22T21:36:05.500Z,-1.70
2019-01-22T21:38:33.958Z,-1.70
2019-01-22T21:41:02.418Z,-1.60
2019-01-22T21:43:50.224Z,-1.70
2019-01-22T21:46:18.676Z,-1.70
2019-01-22T21:48:47.133Z,-1.70
2019-01-22T21:51:15.663Z,-1.70
2019-01-22T21:53:44.131Z,-1.70
2019-01-22T21:56:12.575Z,-1.70
2019-01-22T21:58:41.047Z,-1.70
2019-01-22T22:01:09.557Z,-1.80
2019-01-22T22:03:38.015Z,-1.80
2019-01-22T22:06:06.456Z,-1.70
2019-01-22T22:08:37.595Z,-1.70
2019-01-22T22:11:06.042Z,-1.70
2019-01-22T22:13:34.575Z,-1.80
2019-01-22T22:16:03.018Z,-1.70
2019-01-22T22:18:31.490Z,-1.70
2019-01-22T22:21:00.014Z,-1.70
2019-01-22T22:23:28.477Z,-1.70
2019-01-22T22:25:56.936Z,-1.70
2019-01-22T22:28:25.399Z,-1.70
2019-01-22T22:30:53.842Z,-1.70
2019-01-22T22:33:22.318Z,-1.70
2019-01-22T22:35:50.798Z,-1.80
2019-01-22T22:38:19.824Z,-1.80
2019-01-22T22:40:48.390Z,-1.80
2019-01-22T22:43:16.858Z,-1.80
2019-01-22T22:45:45.382Z,-1.80
2019-01-22T22:48:13.922Z,-1.80
2019-01-22T22:50:42.375Z,-1.80
2019-01-22T22:53:10.841Z,-1.80
2019-01-22T22:55:39.290Z,-1.80
2019-01-22T22:58:07.829Z,-1.80
2019-01-22T23:00:39.826Z,-1.90
2019-01-22T23:03:08.356Z,-1.80
2019-01-22T23:05:37.702Z,-1.80
2019-01-22T23:08:06.237Z,-1.80
2019-01-22T23:10:35.019Z,-1.80
2019-01-22T23:13:03.628Z,-1.80
2019-01-22T23:15:32.282Z,-1.80
2019-01-22T23:18:00.743Z,-1.80
2019-01-22T23:20:48.628Z,-1.80
2019-01-22T23:23:17.092Z,-1.80
2019-01-22T23:25:45.542Z,-1.70
2019-01-22T23:28:14.032Z,-1.80
2019-01-22T23:30:42.475Z,-1.70
2019-01-22T23:33:10.934Z,-1.70
2019-01-22T23:35:39.431Z,-1.80
2019-01-22T23:38:07.962Z,-1.80
2019-01-22T23:40:36.431Z,-1.80
2019-01-22T23:43:24.258Z,-1.80
2019-01-22T23:45:52.803Z,-1.80
2019-01-22T23:48:21.270Z,-1.80
2019-01-22T23:50:49.719Z,-1.80
2019-01-22T23:53:18.182Z,-1.80
2019-01-22T23:55:46.631Z,-1.80
2019-01-22T23:58:15.090Z,-1.70
